Time;durP1;ratioP1;P1;durP2;ratioP2;P2;SDS_P1;SDS_P2;PMS_P1;PMS_P2;Temp;Humidity;BMP_temperature;BMP_pressure;BME280_temperature;BME280_humidity;BME280_pressure;Samples;Min_cycle;Max_cycle;Signal;HPM_P1;HPM_P2
2022/09/18 00:01:28;;;;;;;4.63;2.00;;;;;;;;;;4991360;28;20447;-76
2022/09/18 00:03:56;;;;;;;2.90;2.50;;;;;;;;;;4993769;28;20446;-76
2022/09/18 00:06:24;;;;;;;5.13;2.60;;;;;;;;;;4995009;28;20479;-77
2022/09/18 00:08:52;;;;;;;2.70;2.00;;;;;;;;;;4995454;28;20472;-76
2022/09/18 00:11:21;;;;;;;6.40;2.13;;;;;;;;;;4988697;28;20537;-75
2022/09/18 00:13:48;;;;;;;2.63;1.93;;;;;;;;;;4988422;28;20533;-77
2022/09/18 00:16:16;;;;;;;3.47;1.83;;;;;;;;;;4995580;28;20444;-77
2022/09/18 00:18:43;;;;;;;4.40;2.30;;;;;;;;;;4994133;28;20479;-75
2022/09/18 00:21:12;;;;;;;2.30;2.20;;;;;;;;;;4993471;28;20460;-76
2022/09/18 00:23:39;;;;;;;4.60;2.43;;;;;;;;;;4993689;28;20455;-76
2022/09/18 00:26:07;;;;;;;4.13;2.57;;;;;;;;;;4993856;28;20855;-76
2022/09/18 00:28:36;;;;;;;3.60;1.97;;;;;;;;;;4993556;28;20499;-76
2022/09/18 00:31:06;;;;;;;4.20;2.20;;;;;;;;;;4993679;28;20863;-76
2022/09/18 00:33:33;;;;;;;4.63;2.90;;;;;;;;;;4993736;28;20451;-76
2022/09/18 00:36:01;;;;;;;3.70;2.27;;;;;;;;;;4993869;28;20455;-76
2022/09/18 00:38:30;;;;;;;4.03;3.07;;;;;;;;;;4993779;28;20547;-75
2022/09/18 00:40:57;;;;;;;3.03;2.83;;;;;;;;;;4994111;28;20451;-76
2022/09/18 00:43:25;;;;;;;3.23;2.33;;;;;;;;;;4993777;28;20444;-76
2022/09/18 00:45:55;;;;;;;2.23;2.13;;;;;;;;;;4993651;28;20478;-75
2022/09/18 00:48:24;;;;;;;2.60;2.40;;;;;;;;;;4993897;28;20488;-76
2022/09/18 00:50:52;;;;;;;3.33;2.57;;;;;;;;;;4994037;28;20447;-75
2022/09/18 00:53:19;;;;;;;2.50;2.30;;;;;;;;;;4993416;28;20452;-75
2022/09/18 00:55:46;;;;;;;2.63;2.43;;;;;;;;;;4993788;28;20463;-76
2022/09/18 00:58:13;;;;;;;3.57;2.67;;;;;;;;;;4993661;28;20471;-77
2022/09/18 01:00:40;;;;;;;3.27;3.07;;;;;;;;;;4993628;28;20458;-75
2022/09/18 01:03:09;;;;;;;2.93;2.40;;;;;;;;;;4993539;28;20490;-76
2022/09/18 01:05:44;;;;;;;5.07;2.23;;;;;;;;;;4993563;28;20456;-75
2022/09/18 01:08:19;;;;;;;3.00;2.37;;;;;;;;;;4993105;28;20486;-75
2022/09/18 01:10:51;;;;;;;4.30;2.50;;;;;;;;;;4993208;28;20455;-77
2022/09/18 01:13:24;;;;;;;4.67;2.70;;;;;;;;;;4993200;28;20435;-76
2022/09/18 01:15:53;;;;;;;4.17;2.70;;;;;;;;;;4993212;28;21037;-76
2022/09/18 01:18:26;;;;;;;3.93;2.40;;;;;;;;;;4993338;28;20470;-76
2022/09/18 01:21:00;;;;;;;3.33;2.33;;;;;;;;;;4993008;28;20903;-76
2022/09/18 01:23:47;;;;;;;3.43;2.30;;;;;;;;;;4992923;28;20967;-76
2022/09/18 01:26:20;;;;;;;2.93;2.07;;;;;;;;;;4968175;28;20506;-76
2022/09/18 01:28:54;;;;;;;2.20;1.80;;;;;;;;;;4993179;28;21103;-76
2022/09/18 01:31:27;;;;;;;5.17;1.90;;;;;;;;;;4993135;28;20450;-77
2022/09/18 01:33:57;;;;;;;3.37;1.50;;;;;;;;;;4992689;28;21023;-75
2022/09/18 01:36:26;;;;;;;6.73;2.00;;;;;;;;;;4993159;28;21029;-75
2022/09/18 01:38:56;;;;;;;2.00;1.80;;;;;;;;;;4992951;28;20961;-76
2022/09/18 01:41:24;;;;;;;2.13;1.80;;;;;;;;;;4992965;28;20878;-75
2022/09/18 01:43:54;;;;;;;1.97;1.60;;;;;;;;;;4992784;28;20450;-75
2022/09/18 01:46:23;;;;;;;2.40;1.70;;;;;;;;;;4992457;28;20458;-77
2022/09/18 01:48:52;;;;;;;5.10;2.07;;;;;;;;;;4994409;28;20505;-77
2022/09/18 01:51:22;;;;;;;2.53;1.90;;;;;;;;;;4991988;28;20502;-77
2022/09/18 01:53:51;;;;;;;3.00;1.80;;;;;;;;;;4995853;28;20440;-77
2022/09/18 01:56:20;;;;;;;2.20;1.93;;;;;;;;;;4993101;28;20463;-76
2022/09/18 01:58:49;;;;;;;5.97;1.53;;;;;;;;;;4992272;28;20838;-74
2022/09/18 02:01:19;;;;;;;2.30;1.83;;;;;;;;;;4992470;28;20447;-75
2022/09/18 02:03:48;;;;;;;2.93;1.60;;;;;;;;;;4992252;28;20443;-76
2022/09/18 02:06:17;;;;;;;3.63;2.10;;;;;;;;;;4992509;28;20506;-76
2022/09/18 02:08:47;;;;;;;2.40;1.77;;;;;;;;;;4992689;28;20476;-74
2022/09/18 02:11:15;;;;;;;6.90;2.13;;;;;;;;;;4994631;28;20494;-76
2022/09/18 02:13:44;;;;;;;2.90;1.77;;;;;;;;;;4994461;28;20448;-75
2022/09/18 02:16:16;;;;;;;2.63;2.03;;;;;;;;;;4995532;28;20455;-74
2022/09/18 02:18:46;;;;;;;3.30;2.40;;;;;;;;;;4996214;28;20473;-76
2022/09/18 02:21:17;;;;;;;3.73;2.03;;;;;;;;;;4994788;28;20424;-74
2022/09/18 02:23:45;;;;;;;4.70;2.20;;;;;;;;;;4993371;28;20444;-75
2022/09/18 02:26:13;;;;;;;5.30;2.00;;;;;;;;;;4991881;28;20523;-77
2022/09/18 02:28:41;;;;;;;5.07;3.67;;;;;;;;;;4992162;28;20555;-77
2022/09/18 02:31:11;;;;;;;4.57;2.27;;;;;;;;;;4993318;28;20444;-75
2022/09/18 02:33:38;;;;;;;4.60;2.53;;;;;;;;;;4996037;28;20499;-75
2022/09/18 02:36:13;;;;;;;2.57;1.97;;;;;;;;;;4996231;28;20449;-75
2022/09/18 02:38:44;;;;;;;5.90;2.33;;;;;;;;;;4995639;28;20464;-75
2022/09/18 02:41:15;;;;;;;2.33;2.07;;;;;;;;;;4995875;28;20451;-75
2022/09/18 02:43:45;;;;;;;4.07;2.00;;;;;;;;;;4995649;28;20443;-76
2022/09/18 02:46:15;;;;;;;5.20;2.10;;;;;;;;;;4995662;28;20459;-75
2022/09/18 02:48:47;;;;;;;4.87;2.10;;;;;;;;;;4993651;28;20499;-76
2022/09/18 02:51:19;;;;;;;1.97;1.60;;;;;;;;;;4992818;28;20499;-75
2022/09/18 02:53:49;;;;;;;2.37;2.27;;;;;;;;;;4992483;28;20483;-76
2022/09/18 02:56:20;;;;;;;4.30;1.57;;;;;;;;;;4991409;28;20463;-77
2022/09/18 02:58:50;;;;;;;1.90;1.77;;;;;;;;;;4991794;28;20464;-77
2022/09/18 03:01:18;;;;;;;2.40;1.80;;;;;;;;;;4991819;28;20510;-75
2022/09/18 03:03:45;;;;;;;2.23;2.03;;;;;;;;;;4991051;28;20459;-77
2022/09/18 03:06:12;;;;;;;2.50;2.10;;;;;;;;;;4992946;28;20440;-75
2022/09/18 03:08:40;;;;;;;1.50;1.40;;;;;;;;;;4992636;28;20484;-76
2022/09/18 03:11:07;;;;;;;2.90;1.80;;;;;;;;;;4991998;28;20448;-75
2022/09/18 03:13:35;;;;;;;3.10;1.60;;;;;;;;;;4992981;28;20484;-76
2022/09/18 03:16:02;;;;;;;4.13;2.30;;;;;;;;;;4992510;28;21003;-76
2022/09/18 03:18:29;;;;;;;2.10;1.80;;;;;;;;;;4990841;28;20828;-75
2022/09/18 03:20:56;;;;;;;3.40;1.83;;;;;;;;;;4991080;28;20459;-76
2022/09/18 03:23:23;;;;;;;1.80;1.70;;;;;;;;;;4990947;28;20514;-76
2022/09/18 03:25:51;;;;;;;1.77;1.63;;;;;;;;;;4991475;28;20531;-75
2022/09/18 03:28:19;;;;;;;1.60;1.60;;;;;;;;;;4990994;28;20586;-75
2022/09/18 03:30:47;;;;;;;2.60;1.80;;;;;;;;;;4991464;28;20452;-76
2022/09/18 03:33:14;;;;;;;2.13;1.70;;;;;;;;;;4991373;28;20526;-77
2022/09/18 03:35:42;;;;;;;2.53;1.53;;;;;;;;;;4991067;28;20490;-74
2022/09/18 03:38:10;;;;;;;2.23;1.80;;;;;;;;;;4994441;28;20474;-75
2022/09/18 03:40:37;;;;;;;2.40;1.77;;;;;;;;;;4995033;28;20448;-76
2022/09/18 03:43:05;;;;;;;1.30;1.30;;;;;;;;;;4994717;28;20444;-76
2022/09/18 03:45:32;;;;;;;1.47;1.47;;;;;;;;;;4994875;28;20452;-76
2022/09/18 03:47:59;;;;;;;2.40;1.70;;;;;;;;;;4994560;28;20990;-76
2022/09/18 03:50:26;;;;;;;1.93;1.67;;;;;;;;;;4995075;28;20539;-75
2022/09/18 03:52:54;;;;;;;2.60;1.30;;;;;;;;;;4994660;28;20443;-75
2022/09/18 03:55:22;;;;;;;1.50;1.40;;;;;;;;;;4994839;28;20467;-76
2022/09/18 03:57:49;;;;;;;3.53;1.73;;;;;;;;;;4994365;28;20510;-77
2022/09/18 04:00:18;;;;;;;2.30;1.57;;;;;;;;;;4995064;28;20450;-77
2022/09/18 04:02:45;;;;;;;2.93;1.97;;;;;;;;;;4994612;28;20452;-74
2022/09/18 04:05:12;;;;;;;2.50;1.70;;;;;;;;;;4994697;28;20459;-76
2022/09/18 04:07:39;;;;;;;1.60;1.50;;;;;;;;;;4994461;28;20472;-75
2022/09/18 04:10:06;;;;;;;1.57;1.47;;;;;;;;;;4993387;28;20450;-75
2022/09/18 04:12:34;;;;;;;1.63;1.53;;;;;;;;;;4994081;28;20531;-75
2022/09/18 04:15:00;;;;;;;1.60;1.60;;;;;;;;;;4994370;28;20452;-76
2022/09/18 04:17:30;;;;;;;1.70;1.60;;;;;;;;;;4994351;28;20820;-75
2022/09/18 04:19:57;;;;;;;2.00;1.70;;;;;;;;;;4993932;28;20463;-75
2022/09/18 04:22:24;;;;;;;3.07;2.10;;;;;;;;;;4999671;28;20513;-75
2022/09/18 04:24:51;;;;;;;3.37;1.87;;;;;;;;;;5019177;28;20448;-76
2022/09/18 04:27:18;;;;;;;2.43;2.23;;;;;;;;;;5019837;28;20478;-75
2022/09/18 04:29:45;;;;;;;2.07;1.97;;;;;;;;;;5018597;28;20550;-75
2022/09/18 04:32:12;;;;;;;2.17;1.60;;;;;;;;;;5000161;28;20431;-76
2022/09/18 04:34:42;;;;;;;2.60;1.83;;;;;;;;;;4996393;28;20463;-74
2022/09/18 04:37:09;;;;;;;1.33;1.33;;;;;;;;;;4996345;28;21018;-75
2022/09/18 04:39:36;;;;;;;1.97;1.77;;;;;;;;;;4995157;28;20475;-76
2022/09/18 04:42:03;;;;;;;3.50;1.87;;;;;;;;;;4994227;28;20893;-76
2022/09/18 04:44:30;;;;;;;2.40;2.00;;;;;;;;;;4994386;28;20804;-75
2022/09/18 04:46:57;;;;;;;1.63;1.53;;;;;;;;;;4994297;28;20451;-74
2022/09/18 04:49:24;;;;;;;2.20;1.83;;;;;;;;;;4993402;28;20491;-76
2022/09/18 04:51:53;;;;;;;2.30;1.90;;;;;;;;;;4993702;28;20499;-77
2022/09/18 04:54:20;;;;;;;2.50;1.80;;;;;;;;;;4993877;28;20456;-75
2022/09/18 04:56:47;;;;;;;2.17;1.97;;;;;;;;;;4993821;28;20522;-76
2022/09/18 04:59:14;;;;;;;2.33;2.13;;;;;;;;;;4993811;28;20472;-75
2022/09/18 05:01:41;;;;;;;4.23;2.30;;;;;;;;;;4993888;28;20452;-76
2022/09/18 05:04:08;;;;;;;3.00;2.03;;;;;;;;;;4993381;28;20782;-75
2022/09/18 05:06:35;;;;;;;2.67;2.47;;;;;;;;;;4993547;28;20515;-75
2022/09/18 05:09:03;;;;;;;3.93;2.30;;;;;;;;;;4993808;28;20492;-77
2022/09/18 05:11:30;;;;;;;3.33;2.10;;;;;;;;;;4993574;28;20798;-75
2022/09/18 05:13:58;;;;;;;2.03;1.93;;;;;;;;;;4993171;28;20451;-75
2022/09/18 05:16:25;;;;;;;2.00;1.90;;;;;;;;;;4993514;28;20444;-77
2022/09/18 05:18:52;;;;;;;2.50;2.30;;;;;;;;;;4993581;28;20471;-75
2022/09/18 05:21:19;;;;;;;2.50;2.33;;;;;;;;;;4993755;28;20558;-76
2022/09/18 05:23:46;;;;;;;2.00;1.90;;;;;;;;;;4993212;28;20455;-76
2022/09/18 05:26:15;;;;;;;2.20;2.10;;;;;;;;;;4993649;28;20462;-75
2022/09/18 05:28:53;;;;;;;2.20;2.00;;;;;;;;;;4993813;28;20502;-76
2022/09/18 05:31:33;;;;;;;2.33;2.23;;;;;;;;;;4996732;28;20893;-76
2022/09/18 05:34:00;;;;;;;2.67;2.47;;;;;;;;;;4994919;28;20438;-75
2022/09/18 05:36:27;;;;;;;2.37;2.20;;;;;;;;;;4993387;28;20452;-75
2022/09/18 05:38:54;;;;;;;2.50;2.30;;;;;;;;;;4993117;28;20488;-76
2022/09/18 05:41:22;;;;;;;4.60;2.30;;;;;;;;;;4992723;28;20502;-77
2022/09/18 05:43:49;;;;;;;2.70;2.50;;;;;;;;;;4992340;28;20489;-75
2022/09/18 05:46:22;;;;;;;3.70;2.10;;;;;;;;;;4993616;28;20449;-76
2022/09/18 05:48:49;;;;;;;2.57;2.37;;;;;;;;;;4994751;28;20491;-76
2022/09/18 05:51:16;;;;;;;2.43;2.23;;;;;;;;;;4992903;28;20451;-77
2022/09/18 05:53:47;;;;;;;4.03;2.50;;;;;;;;;;4993544;28;20550;-76
2022/09/18 05:56:14;;;;;;;4.70;2.40;;;;;;;;;;4993625;28;20514;-77
2022/09/18 05:58:42;;;;;;;2.80;2.60;;;;;;;;;;4993025;28;20467;-75
2022/09/18 06:01:09;;;;;;;2.50;2.30;;;;;;;;;;4991510;28;20447;-76
2022/09/18 06:03:36;;;;;;;6.67;3.00;;;;;;;;;;4992116;28;20875;-76
2022/09/18 06:06:04;;;;;;;3.63;2.60;;;;;;;;;;4992408;28;20974;-76
2022/09/18 06:08:31;;;;;;;7.63;2.20;;;;;;;;;;4993277;28;20495;-76
2022/09/18 06:11:02;;;;;;;2.90;2.70;;;;;;;;;;4996471;28;20455;-77
2022/09/18 06:13:29;;;;;;;2.70;2.50;;;;;;;;;;4994243;28;20428;-76
2022/09/18 06:15:57;;;;;;;4.23;2.50;;;;;;;;;;4995980;28;20447;-75
2022/09/18 06:18:24;;;;;;;3.03;2.77;;;;;;;;;;4998967;28;20488;-76
2022/09/18 06:20:53;;;;;;;3.03;2.80;;;;;;;;;;4996765;28;20483;-77
2022/09/18 06:23:20;;;;;;;2.73;2.53;;;;;;;;;;4989815;28;20447;-77
2022/09/18 06:25:47;;;;;;;4.43;3.10;;;;;;;;;;4998851;28;20523;-77
2022/09/18 06:28:14;;;;;;;3.93;2.80;;;;;;;;;;4991891;28;20456;-76
2022/09/18 06:30:41;;;;;;;3.10;2.77;;;;;;;;;;4992048;28;20451;-78
2022/09/18 06:33:10;;;;;;;4.33;3.10;;;;;;;;;;4991620;28;20455;-77
2022/09/18 06:35:38;;;;;;;3.13;2.93;;;;;;;;;;4991821;28;20534;-77
2022/09/18 06:38:06;;;;;;;3.53;3.33;;;;;;;;;;4991428;28;20475;-76
2022/09/18 06:40:34;;;;;;;3.37;3.17;;;;;;;;;;4991836;28;20440;-77
2022/09/18 06:43:01;;;;;;;3.93;3.63;;;;;;;;;;4991612;28;20454;-77
2022/09/18 06:45:29;;;;;;;4.40;3.40;;;;;;;;;;4991617;28;20522;-76
2022/09/18 06:48:00;;;;;;;4.10;2.53;;;;;;;;;;4991362;28;20479;-76
2022/09/18 06:50:29;;;;;;;3.20;2.90;;;;;;;;;;4991212;28;20487;-76
2022/09/18 06:53:01;;;;;;;2.97;2.77;;;;;;;;;;4991335;28;20522;-75
2022/09/18 06:55:28;;;;;;;2.97;2.77;;;;;;;;;;4991440;28;20467;-76
2022/09/18 06:57:55;;;;;;;3.07;2.83;;;;;;;;;;4991355;28;20461;-76
2022/09/18 07:00:22;;;;;;;4.03;3.70;;;;;;;;;;4991131;28;20448;-76
2022/09/18 07:02:54;;;;;;;3.30;2.60;;;;;;;;;;4990961;28;20852;-76
2022/09/18 07:05:21;;;;;;;3.03;2.57;;;;;;;;;;4991317;28;20439;-75
2022/09/18 07:07:50;;;;;;;6.37;5.00;;;;;;;;;;4991728;28;20487;-77
2022/09/18 07:10:17;;;;;;;5.47;3.00;;;;;;;;;;4991104;28;20484;-76
2022/09/18 07:12:47;;;;;;;3.33;3.10;;;;;;;;;;4990401;28;20445;-76
2022/09/18 07:15:14;;;;;;;3.40;3.20;;;;;;;;;;4990918;28;20461;-76
2022/09/18 07:17:41;;;;;;;7.10;5.30;;;;;;;;;;4990935;28;20555;-76
2022/09/18 07:20:09;;;;;;;3.57;3.27;;;;;;;;;;4990884;28;20531;-76
2022/09/18 07:22:36;;;;;;;7.20;3.40;;;;;;;;;;4990931;28;20479;-76
2022/09/18 07:25:05;;;;;;;4.47;3.10;;;;;;;;;;4991562;28;20452;-77
2022/09/18 07:27:32;;;;;;;3.43;3.23;;;;;;;;;;4991567;28;20802;-76
2022/09/18 07:30:00;;;;;;;4.93;2.77;;;;;;;;;;4990806;28;20479;-75
2022/09/18 07:32:27;;;;;;;3.93;3.63;;;;;;;;;;4990460;28;20526;-76
2022/09/18 07:34:54;;;;;;;3.60;2.83;;;;;;;;;;4993006;28;20455;-76
2022/09/18 07:37:32;;;;;;;3.03;2.70;;;;;;;;;;4992605;28;20456;-77
2022/09/18 07:40:00;;;;;;;4.70;2.93;;;;;;;;;;4992958;28;20454;-76
2022/09/18 07:42:29;;;;;;;4.50;3.53;;;;;;;;;;4992902;28;20460;-77
2022/09/18 07:50:45;;;;;;;2.70;2.60;;;;;;;;;;4984103;28;20803;-76
2022/09/18 07:53:39;;;;;;;2.63;2.43;;;;;;;;;;4984948;28;20515;-77
2022/09/18 07:56:11;;;;;;;2.50;2.30;;;;;;;;;;4987482;28;20982;-77
2022/09/18 07:58:42;;;;;;;4.67;2.23;;;;;;;;;;4992942;28;20468;-77
2022/09/18 08:01:15;;;;;;;3.00;2.30;;;;;;;;;;4993376;28;20440;-77
2022/09/18 08:03:45;;;;;;;2.10;2.00;;;;;;;;;;4993687;28;20448;-76
2022/09/18 08:08:59;;;;;;;2.60;2.20;;;;;;;;;;4990662;28;20987;-76
2022/09/18 08:11:26;;;;;;;2.10;2.00;;;;;;;;;;4994188;28;20478;-77
2022/09/18 08:14:11;;;;;;;2.63;2.43;;;;;;;;;;4993184;28;20456;-76
2022/09/18 08:19:37;;;;;;;2.57;2.40;;;;;;;;;;4933000;29;20502;-76
2022/09/18 08:22:10;;;;;;;4.70;2.70;;;;;;;;;;4994566;28;20482;-77
2022/09/18 08:24:40;;;;;;;5.47;2.97;;;;;;;;;;4994374;28;20479;-76
2022/09/18 08:27:08;;;;;;;3.27;1.90;;;;;;;;;;4995402;28;20450;-75
2022/09/18 08:29:36;;;;;;;5.20;2.50;;;;;;;;;;4994257;28;20566;-76
2022/09/18 08:32:03;;;;;;;3.17;2.23;;;;;;;;;;4993961;28;20793;-75
2022/09/18 08:34:30;;;;;;;2.90;2.40;;;;;;;;;;4999610;28;20458;-76
2022/09/18 08:36:57;;;;;;;2.70;2.50;;;;;;;;;;5003236;28;20480;-75
2022/09/18 08:39:24;;;;;;;4.30;2.17;;;;;;;;;;5002652;28;20526;-76
2022/09/18 08:42:00;;;;;;;4.53;2.47;;;;;;;;;;5003449;28;20451;-76
2022/09/18 08:44:29;;;;;;;4.47;2.37;;;;;;;;;;4987560;28;20499;-76
2022/09/18 08:46:59;;;;;;;3.17;2.97;;;;;;;;;;5003921;28;20445;-75
2022/09/18 08:49:30;;;;;;;2.73;2.07;;;;;;;;;;5001817;28;20488;-77
2022/09/18 08:51:59;;;;;;;2.50;2.30;;;;;;;;;;4996470;28;20822;-75
2022/09/18 08:54:33;;;;;;;2.73;2.50;;;;;;;;;;5014637;28;20456;-75
2022/09/18 08:57:04;;;;;;;3.37;2.40;;;;;;;;;;5017705;28;20456;-76
2022/09/18 08:59:36;;;;;;;3.93;2.60;;;;;;;;;;5005079;28;20468;-76
2022/09/18 09:02:09;;;;;;;2.43;2.23;;;;;;;;;;4999614;28;20827;-76
2022/09/18 09:04:36;;;;;;;4.63;3.27;;;;;;;;;;4995760;28;20491;-77
2022/09/18 09:07:09;;;;;;;4.13;2.50;;;;;;;;;;4997349;28;20444;-75
2022/09/18 09:09:43;;;;;;;3.03;2.63;;;;;;;;;;4995672;28;20502;-77
2022/09/18 09:12:17;;;;;;;2.70;2.50;;;;;;;;;;4996864;28;20453;-77
2022/09/18 09:14:57;;;;;;;2.73;2.53;;;;;;;;;;4996758;28;20456;-76
2022/09/18 09:17:38;;;;;;;2.87;2.67;;;;;;;;;;4995903;28;20447;-76
2022/09/18 09:20:09;;;;;;;3.20;2.23;;;;;;;;;;4996925;28;20452;-77
2022/09/18 09:22:40;;;;;;;4.77;2.87;;;;;;;;;;4996924;28;20444;-76
2022/09/18 09:25:11;;;;;;;4.67;2.80;;;;;;;;;;4995675;28;20436;-75
2022/09/18 09:27:39;;;;;;;4.40;2.40;;;;;;;;;;4994585;28;20864;-76
2022/09/18 09:30:12;;;;;;;5.23;2.90;;;;;;;;;;4993904;28;20837;-77
2022/09/18 09:32:43;;;;;;;3.90;2.50;;;;;;;;;;4993712;28;20455;-77
2022/09/18 09:35:21;;;;;;;3.60;3.20;;;;;;;;;;4993366;28;20447;-77
2022/09/18 09:37:49;;;;;;;3.10;2.40;;;;;;;;;;4993841;28;20752;-76
2022/09/18 09:40:17;;;;;;;2.97;2.37;;;;;;;;;;4993902;28;21085;-77
2022/09/18 09:42:47;;;;;;;3.40;3.10;;;;;;;;;;4992305;28;20479;-75
2022/09/18 09:45:16;;;;;;;2.60;2.10;;;;;;;;;;4993669;28;20487;-76
2022/09/18 09:47:46;;;;;;;3.33;3.13;;;;;;;;;;4993461;28;20465;-76
2022/09/18 09:50:19;;;;;;;2.63;2.40;;;;;;;;;;4993516;28;20538;-78
2022/09/18 09:52:46;;;;;;;3.70;2.57;;;;;;;;;;4993844;28;20435;-76
2022/09/18 09:55:25;;;;;;;2.93;2.47;;;;;;;;;;4993798;28;20467;-76
2022/09/18 09:57:57;;;;;;;2.17;2.07;;;;;;;;;;4993803;28;20473;-77
2022/09/18 10:00:24;;;;;;;3.57;2.50;;;;;;;;;;4994242;28;20424;-77
2022/09/18 10:03:05;;;;;;;5.30;2.20;;;;;;;;;;4993619;28;20451;-76
2022/09/18 10:05:35;;;;;;;4.30;1.97;;;;;;;;;;4993533;28;20935;-76
2022/09/18 10:08:05;;;;;;;3.40;1.87;;;;;;;;;;4992726;28;20480;-78
2022/09/18 10:10:37;;;;;;;6.33;2.57;;;;;;;;;;4992028;28;20483;-77
2022/09/18 10:13:07;;;;;;;1.97;1.73;;;;;;;;;;4997059;28;20448;-77
2022/09/18 10:15:35;;;;;;;2.63;1.73;;;;;;;;;;4998210;28;20518;-77
2022/09/18 10:18:05;;;;;;;6.57;2.20;;;;;;;;;;4995264;28;20460;-76
2022/09/18 10:20:33;;;;;;;3.67;1.93;;;;;;;;;;4996206;28;20448;-75
2022/09/18 10:23:04;;;;;;;4.17;1.90;;;;;;;;;;4992450;28;20448;-77
2022/09/18 10:25:41;;;;;;;3.20;2.13;;;;;;;;;;4994433;28;20435;-75
2022/09/18 10:28:11;;;;;;;3.87;1.40;;;;;;;;;;4994265;28;20460;-76
2022/09/18 10:30:52;;;;;;;2.13;1.53;;;;;;;;;;4979911;28;20479;-77
2022/09/18 10:33:30;;;;;;;4.53;1.90;;;;;;;;;;4973300;28;21151;-76
2022/09/18 10:36:01;;;;;;;3.30;1.60;;;;;;;;;;4989729;28;20448;-77
2022/09/18 10:38:32;;;;;;;3.50;2.00;;;;;;;;;;4989903;28;20503;-74
2022/09/18 10:41:11;;;;;;;1.43;1.33;;;;;;;;;;4989387;28;20455;-77
2022/09/18 10:43:40;;;;;;;3.53;1.20;;;;;;;;;;4989506;28;20468;-75
2022/09/18 10:46:07;;;;;;;1.60;1.50;;;;;;;;;;4988729;28;20459;-76
2022/09/18 10:48:36;;;;;;;1.77;1.40;;;;;;;;;;4989772;28;20495;-76
2022/09/18 10:51:04;;;;;;;4.43;1.50;;;;;;;;;;4990785;28;20574;-76
2022/09/18 10:53:32;;;;;;;5.30;2.23;;;;;;;;;;4989466;28;20845;-75
2022/09/18 10:56:03;;;;;;;4.90;1.90;;;;;;;;;;4989259;28;20470;-75
2022/09/18 10:58:31;;;;;;;1.43;1.33;;;;;;;;;;4989753;28;20558;-77
2022/09/18 11:01:00;;;;;;;2.57;1.30;;;;;;;;;;4990130;28;20456;-76
2022/09/18 11:03:46;;;;;;;3.57;1.60;;;;;;;;;;4989759;28;20464;-76
2022/09/18 11:06:17;;;;;;;3.73;1.30;;;;;;;;;;4989172;28;20518;-77
2022/09/18 11:08:47;;;;;;;4.53;1.33;;;;;;;;;;4989527;28;20480;-75
2022/09/18 11:11:20;;;;;;;1.40;1.30;;;;;;;;;;4988920;28;20479;-77
2022/09/18 11:13:50;;;;;;;2.50;1.07;;;;;;;;;;4989409;28;20530;-76
2022/09/18 11:16:22;;;;;;;1.20;1.10;;;;;;;;;;4989634;28;20455;-75
2022/09/18 11:19:00;;;;;;;1.37;0.70;;;;;;;;;;4989108;28;20479;-76
2022/09/18 11:21:27;;;;;;;1.40;0.80;;;;;;;;;;4989465;28;20440;-76
2022/09/18 11:24:01;;;;;;;1.07;1.07;;;;;;;;;;4987370;28;20459;-77
2022/09/18 11:26:29;;;;;;;2.00;1.00;;;;;;;;;;4977928;28;20812;-75
2022/09/18 11:29:05;;;;;;;1.80;0.87;;;;;;;;;;4989220;28;20475;-76
2022/09/18 11:31:39;;;;;;;2.10;1.17;;;;;;;;;;4988421;28;20867;-77
2022/09/18 11:34:12;;;;;;;1.77;1.00;;;;;;;;;;4988412;28;20474;-77
2022/09/18 11:36:40;;;;;;;1.30;0.97;;;;;;;;;;4988905;28;20445;-77
2022/09/18 11:39:13;;;;;;;4.30;1.10;;;;;;;;;;4988704;28;20476;-76
2022/09/18 11:41:41;;;;;;;4.63;1.40;;;;;;;;;;4988951;28;20815;-78
2022/09/18 11:44:14;;;;;;;1.33;0.80;;;;;;;;;;4988443;28;20498;-75
2022/09/18 11:46:46;;;;;;;2.10;0.90;;;;;;;;;;4988969;28;20482;-75
2022/09/18 11:49:17;;;;;;;4.90;1.40;;;;;;;;;;4988805;28;20546;-76
2022/09/18 11:51:47;;;;;;;1.60;1.00;;;;;;;;;;4988604;28;20546;-79
2022/09/18 11:54:20;;;;;;;3.37;1.20;;;;;;;;;;4989348;28;20451;-77
2022/09/18 11:56:48;;;;;;;2.10;1.17;;;;;;;;;;4989114;28;20456;-78
2022/09/18 11:59:21;;;;;;;0.70;0.70;;;;;;;;;;4993380;28;21202;-79
2022/09/18 12:01:51;;;;;;;1.37;1.20;;;;;;;;;;4994652;28;20448;-76
2022/09/18 12:04:22;;;;;;;2.10;1.30;;;;;;;;;;4992986;28;20444;-77
2022/09/18 12:06:52;;;;;;;0.87;0.87;;;;;;;;;;4992773;28;20448;-77
2022/09/18 12:09:24;;;;;;;1.13;1.07;;;;;;;;;;4992880;28;20483;-77
2022/09/18 12:11:53;;;;;;;2.03;1.43;;;;;;;;;;4992364;28;20484;-77
2022/09/18 12:14:22;;;;;;;0.90;0.80;;;;;;;;;;4993055;28;20440;-77
2022/09/18 12:16:51;;;;;;;1.00;0.80;;;;;;;;;;4994534;28;20480;-78
2022/09/18 12:19:22;;;;;;;3.40;1.10;;;;;;;;;;4994260;28;20476;-77
2022/09/18 12:21:52;;;;;;;1.23;1.07;;;;;;;;;;4991004;28;20456;-77
2022/09/18 12:24:19;;;;;;;1.10;1.10;;;;;;;;;;4994578;28;20534;-77
2022/09/18 12:26:55;;;;;;;1.53;1.00;;;;;;;;;;4993943;28;20432;-77
2022/09/18 12:29:30;;;;;;;1.57;1.13;;;;;;;;;;4992979;28;20459;-77
2022/09/18 12:32:00;;;;;;;5.10;1.20;;;;;;;;;;4992761;28;20483;-76
2022/09/18 12:34:33;;;;;;;1.17;0.97;;;;;;;;;;4993971;28;20479;-76
2022/09/18 12:37:05;;;;;;;0.90;0.90;;;;;;;;;;4997893;28;20460;-76
2022/09/18 12:39:43;;;;;;;0.70;0.70;;;;;;;;;;4995394;28;20464;-76
2022/09/18 12:42:17;;;;;;;1.63;0.80;;;;;;;;;;4996496;28;20455;-77
2022/09/18 12:44:52;;;;;;;1.30;1.10;;;;;;;;;;4993200;28;20453;-76
2022/09/18 12:47:34;;;;;;;1.30;1.00;;;;;;;;;;4992721;28;20444;-76
2022/09/18 12:50:07;;;;;;;4.67;1.00;;;;;;;;;;4992039;28;20459;-76
2022/09/18 12:52:38;;;;;;;2.33;1.00;;;;;;;;;;4991423;28;20488;-78
2022/09/18 12:55:15;;;;;;;1.40;1.10;;;;;;;;;;4991795;28;20459;-77
2022/09/18 12:57:48;;;;;;;1.70;0.80;;;;;;;;;;4991826;28;20464;-75
2022/09/18 13:00:16;;;;;;;4.00;1.07;;;;;;;;;;4988301;28;20935;-77
2022/09/18 13:02:52;;;;;;;1.17;0.90;;;;;;;;;;4983429;28;20499;-75
2022/09/18 13:05:23;;;;;;;1.73;1.00;;;;;;;;;;4991393;28;20447;-76
2022/09/18 13:07:53;;;;;;;1.57;1.17;;;;;;;;;;4991658;28;20868;-76
2022/09/18 13:10:22;;;;;;;2.37;1.40;;;;;;;;;;4991457;28;20818;-77
2022/09/18 13:12:53;;;;;;;0.90;0.90;;;;;;;;;;4992345;28;21173;-77
2022/09/18 13:15:22;;;;;;;1.33;0.97;;;;;;;;;;4993401;28;20935;-78
2022/09/18 13:17:50;;;;;;;2.33;0.90;;;;;;;;;;4992939;28;20876;-78
2022/09/18 13:20:21;;;;;;;2.50;1.20;;;;;;;;;;4994374;28;20475;-77
2022/09/18 13:22:50;;;;;;;1.97;1.13;;;;;;;;;;5015201;28;20417;-73
2022/09/18 13:25:25;;;;;;;1.57;1.47;;;;;;;;;;5018946;28;20428;-77
2022/09/18 13:27:54;;;;;;;1.30;1.00;;;;;;;;;;5019005;28;20468;-75
2022/09/18 13:30:25;;;;;;;2.30;1.30;;;;;;;;;;5007165;28;20448;-76
2022/09/18 13:32:53;;;;;;;2.80;1.10;;;;;;;;;;4998117;28;20521;-77
2022/09/18 13:35:22;;;;;;;0.93;0.93;;;;;;;;;;4997601;28;21018;-77
2022/09/18 13:38:03;;;;;;;4.90;1.10;;;;;;;;;;4997083;28;20884;-77
2022/09/18 13:40:34;;;;;;;1.03;0.93;;;;;;;;;;5002829;28;20448;-75
2022/09/18 13:43:14;;;;;;;0.87;0.80;;;;;;;;;;5006105;28;20479;-78
2022/09/18 13:45:41;;;;;;;2.57;1.10;;;;;;;;;;5005351;28;20463;-76
2022/09/18 13:48:14;;;;;;;4.07;1.30;;;;;;;;;;5004300;28;20487;-75
2022/09/18 13:50:49;;;;;;;1.13;1.00;;;;;;;;;;5001814;28;20707;-77
2022/09/18 13:53:30;;;;;;;0.93;0.90;;;;;;;;;;4995235;28;20951;-77
2022/09/18 13:55:57;;;;;;;1.23;1.00;;;;;;;;;;4998376;28;20495;-77
2022/09/18 13:58:35;;;;;;;1.83;1.00;;;;;;;;;;4997938;28;20475;-75
2022/09/18 14:01:03;;;;;;;1.30;1.20;;;;;;;;;;4998340;28;20483;-76
2022/09/18 14:03:38;;;;;;;2.63;1.43;;;;;;;;;;5003687;28;20451;-77
2022/09/18 14:06:24;;;;;;;1.50;1.17;;;;;;;;;;5002602;28;20920;-76
2022/09/18 14:08:52;;;;;;;2.40;1.30;;;;;;;;;;5002737;28;20479;-76
2022/09/18 14:11:24;;;;;;;2.40;0.97;;;;;;;;;;5002411;28;20476;-77
2022/09/18 14:13:53;;;;;;;1.20;1.10;;;;;;;;;;5002035;28;20463;-76
2022/09/18 14:16:30;;;;;;;1.53;1.10;;;;;;;;;;4999632;28;20515;-77
2022/09/18 14:18:59;;;;;;;2.20;1.27;;;;;;;;;;4998586;28;20489;-76
2022/09/18 14:21:30;;;;;;;2.17;1.27;;;;;;;;;;4976279;28;20446;-77
2022/09/18 14:24:12;;;;;;;1.57;1.43;;;;;;;;;;4973739;28;20481;-77
2022/09/18 14:26:58;;;;;;;1.90;1.00;;;;;;;;;;4974205;28;20469;-76
2022/09/18 14:29:28;;;;;;;3.90;1.17;;;;;;;;;;4974010;28;20476;-78
2022/09/18 14:31:56;;;;;;;2.07;1.47;;;;;;;;;;4974243;28;20496;-78
2022/09/18 14:34:26;;;;;;;3.40;1.00;;;;;;;;;;4974338;28;20453;-76
2022/09/18 14:36:54;;;;;;;1.07;1.07;;;;;;;;;;4984369;28;20460;-77
2022/09/18 14:39:25;;;;;;;1.90;1.20;;;;;;;;;;4991692;28;20469;-77
2022/09/18 14:41:53;;;;;;;2.80;1.20;;;;;;;;;;4992334;28;20527;-77
2022/09/18 14:44:20;;;;;;;1.20;1.07;;;;;;;;;;4991356;28;20843;-78
2022/09/18 14:46:56;;;;;;;1.30;1.20;;;;;;;;;;4991051;28;20466;-77
2022/09/18 14:49:27;;;;;;;1.30;1.20;;;;;;;;;;4992025;28;20472;-78
2022/09/18 14:51:54;;;;;;;1.80;1.30;;;;;;;;;;4991951;28;20574;-76
2022/09/18 14:54:23;;;;;;;1.83;1.30;;;;;;;;;;4990903;28;20535;-77
2022/09/18 14:56:51;;;;;;;1.30;1.20;;;;;;;;;;4991331;28;20871;-76
2022/09/18 14:59:20;;;;;;;2.40;1.20;;;;;;;;;;4991329;28;20534;-76
2022/09/18 15:01:47;;;;;;;3.30;1.33;;;;;;;;;;4989708;28;20845;-76
2022/09/18 15:04:18;;;;;;;2.07;1.00;;;;;;;;;;4990989;28;20448;-77
2022/09/18 15:06:46;;;;;;;1.40;1.30;;;;;;;;;;4992749;28;20834;-78
2022/09/18 15:09:14;;;;;;;1.53;1.30;;;;;;;;;;4992183;28;20546;-77
2022/09/18 15:11:42;;;;;;;1.80;1.27;;;;;;;;;;4991597;28;20515;-77